Time;durP1;ratioP1;P1;durP2;ratioP2;P2;SDS_P1;SDS_P2;PMS_P1;PMS_P2;Temp;Humidity;BMP_temperature;BMP_pressure;BME280_temperature;BME280_humidity;BME280_pressure;Samples;Min_cycle;Max_cycle;Signal;HPM_P1;HPM_P2
2022/11/28 00:01:42;;;;;;;15.43;5.95;;;12.60;81.10;;;;;;7378557;19;20037;-79
2022/11/28 00:04:14;;;;;;;12.52;6.63;;;12.60;81.10;;;;;;7389517;19;20087;-79
2022/11/28 00:06:48;;;;;;;14.60;7.10;;;12.60;81.10;;;;;;7370562;19;20044;-79
2022/11/28 00:09:18;;;;;;;21.95;6.50;;;12.70;81.20;;;;;;7370786;19;20039;-79
2022/11/28 00:11:48;;;;;;;15.52;6.43;;;12.70;81.20;;;;;;7370773;19;20416;-79
2022/11/28 00:14:19;;;;;;;17.90;6.78;;;12.70;81.20;;;;;;7371607;19;20081;-79
2022/11/28 00:16:48;;;;;;;11.35;6.18;;;12.80;81.10;;;;;;7368542;19;20127;-79
2022/11/28 00:19:19;;;;;;;10.70;5.63;;;12.70;81.00;;;;;;7392569;19;20019;-79
2022/11/28 00:21:48;;;;;;;13.45;6.60;;;12.70;81.90;;;;;;7374862;19;20082;-79
2022/11/28 00:24:17;;;;;;;9.98;5.68;;;12.60;81.30;;;;;;7368905;19;20343;-78
2022/11/28 00:26:46;;;;;;;12.25;6.32;;;12.60;81.40;;;;;;7372790;19;20018;-78
2022/11/28 00:29:15;;;;;;;14.25;5.97;;;12.60;81.50;;;;;;7370615;19;20940;-78
2022/11/28 00:31:46;;;;;;;9.98;5.90;;;12.60;81.60;;;;;;7371553;19;20082;-78
2022/11/28 00:34:18;;;;;;;10.98;6.05;;;12.60;81.70;;;;;;7395897;19;20025;-79
2022/11/28 00:36:48;;;;;;;15.32;5.78;;;12.70;81.80;;;;;;7375301;19;20015;-79
2022/11/28 00:39:18;;;;;;;12.68;6.10;;;12.60;81.60;;;;;;7374406;19;20047;-78
2022/11/28 00:41:46;;;;;;;13.85;6.03;;;12.60;81.60;;;;;;7378364;19;20058;-78
2022/11/28 00:44:15;;;;;;;16.92;6.85;;;12.70;81.80;;;;;;7380422;19;20011;-78
2022/11/28 00:46:47;;;;;;;14.35;6.57;;;12.60;81.90;;;;;;7379663;19;20011;-78
2022/11/28 00:49:15;;;;;;;;;;;12.60;81.90;;;;;;7402083;19;20029;-78
2022/11/28 00:51:46;;;;;;;18.48;6.55;;;12.70;82.00;;;;;;7380276;19;19982;-78
2022/11/28 00:54:15;;;;;;;11.52;6.30;;;12.70;81.70;;;;;;7380119;19;20002;-78
2022/11/28 00:56:44;;;;;;;15.23;6.70;;;12.70;81.70;;;;;;7384079;19;20700;-78
2022/11/28 00:59:12;;;;;;;11.73;6.57;;;12.70;81.90;;;;;;7385464;19;20024;-78
2022/11/28 01:01:43;;;;;;;13.85;6.65;;;12.70;81.90;;;;;;7388940;19;20032;-78
2022/11/28 01:04:14;;;;;;;11.30;7.33;;;12.70;81.90;;;;;;7406445;19;20055;-78
2022/11/28 01:06:48;;;;;;;12.48;6.93;;;12.70;81.80;;;;;;7383365;19;20070;-78
2022/11/28 01:09:18;;;;;;;17.70;7.57;;;12.70;81.80;;;;;;7376267;19;20117;-78
2022/11/28 01:11:48;;;;;;;15.10;7.00;;;12.70;81.90;;;;;;7377608;19;20098;-79
2022/11/28 01:14:20;;;;;;;13.27;7.18;;;12.70;82.00;;;;;;7376998;19;20544;-78
2022/11/28 01:16:48;;;;;;;13.38;7.00;;;12.80;82.10;;;;;;7377242;19;20110;-78
2022/11/28 01:19:18;;;;;;;20.17;7.55;;;12.80;82.10;;;;;;7398139;19;20441;-78
2022/11/28 01:21:49;;;;;;;17.60;7.03;;;12.80;82.10;;;;;;7380138;19;20036;-79
2022/11/28 01:24:21;;;;;;;13.52;7.10;;;12.80;82.00;;;;;;7383533;19;20051;-79
2022/11/28 01:26:49;;;;;;;14.95;7.65;;;12.90;82.00;;;;;;7386210;19;20043;-79
2022/11/28 01:29:18;;;;;;;16.13;7.35;;;12.90;81.90;;;;;;7380756;19;20078;-79
2022/11/28 01:31:50;;;;;;;14.70;7.60;;;12.90;81.90;;;;;;7377040;19;20590;-79
2022/11/28 01:34:19;;;;;;;17.23;7.80;;;12.90;81.90;;;;;;7400194;19;20680;-78
2022/11/28 01:36:50;;;;;;;17.45;7.68;;;12.90;81.90;;;;;;7376273;19;20046;-78
2022/11/28 01:39:19;;;;;;;17.92;7.97;;;12.90;81.90;;;;;;7377543;19;20607;-77
2022/11/28 01:41:47;;;;;;;14.23;7.50;;;12.90;81.80;;;;;;7378041;19;20014;-79
2022/11/28 01:44:52;;;;;;;15.00;7.93;;;12.80;81.80;;;;;;7376003;19;20029;-78
2022/11/28 01:47:26;;;;;;;16.05;8.82;;;12.90;82.10;;;;;;7373056;19;20472;-79
2022/11/28 01:49:57;;;;;;;18.92;8.23;;;12.80;81.80;;;;;;7372781;19;20014;-78
2022/11/28 01:52:29;;;;;;;20.30;8.32;;;12.80;82.00;;;;;;7370209;19;20454;-78
2022/11/28 01:55:01;;;;;;;20.77;10.07;;;12.80;82.20;;;;;;7393148;19;20573;-78
2022/11/28 01:57:30;;;;;;;14.63;8.57;;;12.80;82.10;;;;;;7372198;19;20014;-78
2022/11/28 02:00:04;;;;;;;18.35;8.23;;;12.80;82.10;;;;;;7374919;19;20022;-78
2022/11/28 02:02:37;;;;;;;16.90;9.10;;;12.80;82.20;;;;;;7371323;19;20014;-78
2022/11/28 02:05:07;;;;;;;15.85;8.43;;;12.80;82.10;;;;;;7370975;19;20037;-77
2022/11/28 02:07:39;;;;;;;14.85;9.00;;;12.90;82.10;;;;;;7370878;19;20052;-78
2022/11/28 02:10:11;;;;;;;15.68;8.73;;;12.80;82.10;;;;;;7394376;19;20021;-78
2022/11/28 02:13:11;;;;;;;20.58;8.73;;;12.90;82.10;;;;;;7371647;19;20014;-78
2022/11/28 02:15:54;;;;;;;17.02;8.45;;;12.90;82.10;;;;;;7372393;19;20015;-78
2022/11/28 02:18:37;;;;;;;18.17;9.10;;;12.90;82.10;;;;;;7373544;19;20125;-79
2022/11/28 02:21:18;;;;;;;18.00;9.40;;;13.00;82.10;;;;;;7373055;19;20020;-79
2022/11/28 02:24:12;;;;;;;24.70;9.75;;;13.00;82.10;;;;;;7372362;19;20015;-79
2022/11/28 02:27:01;;;;;;;23.65;9.77;;;12.90;82.10;;;;;;7374087;19;20082;-79
2022/11/28 02:30:03;;;;;;;23.58;10.52;;;13.00;82.10;;;;;;7375777;19;20018;-78
2022/11/28 02:32:51;;;;;;;15.73;9.13;;;13.00;83.00;;;;;;7373825;19;20422;-79
2022/11/28 02:35:24;;;;;;;20.98;9.85;;;13.00;82.10;;;;;;7374559;19;20110;-78
2022/11/28 02:38:04;;;;;;;28.05;10.60;;;13.00;81.90;;;;;;7373681;19;20037;-78
2022/11/28 02:40:39;;;;;;;20.10;9.98;;;13.00;82.10;;;;;;7373621;19;20019;-79
2022/11/28 02:43:16;;;;;;;17.52;10.10;;;13.00;82.80;;;;;;7396817;19;20237;-80
2022/11/28 02:45:53;;;;;;;20.80;10.43;;;13.00;82.10;;;;;;7375867;19;20015;-79
2022/11/28 02:48:31;;;;;;;21.30;10.40;;;13.00;82.00;;;;;;7385033;19;20069;-79
2022/11/28 02:51:07;;;;;;;20.92;10.63;;;13.10;82.20;;;;;;7389992;19;20022;-80
2022/11/28 02:53:38;;;;;;;23.27;10.63;;;13.00;81.90;;;;;;7386779;19;20062;-79
2022/11/28 02:56:07;;;;;;;21.47;10.20;;;13.10;82.00;;;;;;7385729;19;20066;-79
2022/11/28 02:58:38;;;;;;;18.58;9.52;;;13.10;82.10;;;;;;7380698;19;20043;-78
2022/11/28 03:01:11;;;;;;;21.98;10.60;;;13.10;82.10;;;;;;7398258;19;20628;-79
2022/11/28 03:04:08;;;;;;;21.20;10.43;;;13.10;82.10;;;;;;7369486;19;20015;-79
2022/11/28 03:06:49;;;;;;;18.17;10.13;;;13.10;82.20;;;;;;7373905;19;20766;-79
2022/11/28 03:09:40;;;;;;;23.40;10.60;;;13.10;82.10;;;;;;7372283;19;20011;-79
2022/11/28 03:12:19;;;;;;;26.60;11.00;;;13.10;82.10;;;;;;7373646;19;20082;-79
2022/11/28 03:14:53;;;;;;;21.38;10.77;;;13.10;82.10;;;;;;7373770;19;20266;-79
2022/11/28 03:17:29;;;;;;;25.15;10.73;;;13.10;82.00;;;;;;7372798;19;20321;-80
2022/11/28 03:20:13;;;;;;;16.15;9.55;;;13.10;82.00;;;;;;7372556;19;20014;-79
2022/11/28 03:22:54;;;;;;;24.08;10.18;;;13.10;82.10;;;;;;7371026;19;20008;-77
2022/11/28 03:25:29;;;;;;;19.58;10.68;;;13.10;82.10;;;;;;7371346;19;20632;-78
2022/11/28 03:28:03;;;;;;;16.60;9.77;;;13.10;82.10;;;;;;7395539;19;20018;-77
2022/11/28 03:30:36;;;;;;;19.73;10.50;;;13.10;82.00;;;;;;7372653;19;20035;-77
2022/11/28 03:33:05;;;;;;;22.25;11.35;;;13.10;82.80;;;;;;7374842;19;20453;-78
2022/11/28 03:35:41;;;;;;;18.38;10.05;;;13.20;82.00;;;;;;7370832;19;20081;-78
2022/11/28 03:38:16;;;;;;;19.70;10.30;;;13.10;81.90;;;;;;7371468;19;20078;-78
2022/11/28 03:40:49;;;;;;;20.42;11.35;;;13.00;81.90;;;;;;7373778;19;21172;-79
2022/11/28 03:43:22;;;;;;;18.05;10.40;;;13.00;82.00;;;;;;7395134;19;20033;-79
2022/11/28 03:45:55;;;;;;;22.50;11.13;;;13.00;82.10;;;;;;7369963;19;20082;-78
2022/11/28 03:48:28;;;;;;;21.38;11.10;;;13.00;81.90;;;;;;7368890;19;20019;-78
2022/11/28 03:51:04;;;;;;;21.33;10.68;;;13.00;81.90;;;;;;7372554;19;20126;-78
2022/11/28 03:53:43;;;;;;;20.67;11.07;;;13.00;82.00;;;;;;7369549;19;20729;-79
2022/11/28 03:56:16;;;;;;;21.85;10.30;;;13.00;82.10;;;;;;7372101;19;20015;-78
2022/11/28 03:58:52;;;;;;;22.48;11.38;;;13.10;82.10;;;;;;7369979;19;20007;-78
2022/11/28 04:01:33;;;;;;;22.95;11.07;;;13.10;82.10;;;;;;7385502;19;20039;-78
2022/11/28 04:04:12;;;;;;;22.23;10.80;;;13.10;82.10;;;;;;7394628;19;20015;-78
2022/11/28 04:06:54;;;;;;;22.00;10.50;;;13.10;82.10;;;;;;7370394;19;20094;-79
2022/11/28 04:09:33;;;;;;;23.58;10.82;;;13.10;82.00;;;;;;7371936;19;20375;-79
2022/11/28 04:12:09;;;;;;;20.50;11.18;;;13.10;81.80;;;;;;7373759;19;20106;-79
2022/11/28 04:14:43;;;;;;;21.60;10.98;;;13.10;81.80;;;;;;7379658;19;20040;-79
2022/11/28 04:17:18;;;;;;;22.40;10.63;;;13.10;81.80;;;;;;7384249;19;20287;-79
2022/11/28 04:19:52;;;;;;;19.17;10.55;;;13.20;81.90;;;;;;7381256;19;20456;-78
2022/11/28 04:22:30;;;;;;;25.08;11.93;;;13.20;81.90;;;;;;7393949;19;20032;-77
2022/11/28 04:25:03;;;;;;;20.85;10.68;;;13.20;81.90;;;;;;7397669;19;20018;-79
2022/11/28 04:27:37;;;;;;;19.73;10.65;;;13.20;81.90;;;;;;7378261;19;20100;-79
2022/11/28 04:30:07;;;;;;;21.40;10.60;;;13.20;81.90;;;;;;7379452;19;20010;-78
2022/11/28 04:32:40;;;;;;;20.02;10.35;;;13.20;81.80;;;;;;7378884;19;20122;-79
2022/11/28 04:35:13;;;;;;;26.52;11.55;;;13.20;81.90;;;;;;7379431;19;20082;-79
2022/11/28 04:37:48;;;;;;;21.88;10.57;;;13.10;81.60;;;;;;7381705;19;20071;-78
2022/11/28 04:40:19;;;;;;;27.20;11.20;;;13.10;81.80;;;;;;7404714;19;20018;-78
2022/11/28 04:42:51;;;;;;;19.48;11.15;;;13.10;81.80;;;;;;7390246;19;20078;-78
2022/11/28 04:45:25;;;;;;;22.80;11.52;;;13.10;81.90;;;;;;7388443;19;20082;-79
2022/11/28 04:47:54;;;;;;;23.42;11.18;;;13.10;82.00;;;;;;7388822;19;20019;-79
2022/11/28 04:50:26;;;;;;;25.70;10.85;;;13.10;82.00;;;;;;7387781;19;20082;-79
2022/11/28 04:53:04;;;;;;;29.88;11.82;;;13.10;82.20;;;;;;7388854;19;20307;-79
2022/11/28 04:55:37;;;;;;;23.80;11.85;;;13.00;82.10;;;;;;7379851;19;20081;-78
2022/11/28 04:58:12;;;;;;;28.95;12.40;;;13.10;82.20;;;;;;7399107;19;20078;-79
2022/11/28 05:00:42;;;;;;;21.98;11.65;;;13.10;82.20;;;;;;7376266;19;20133;-79
2022/11/28 05:03:12;;;;;;;22.45;11.60;;;13.10;82.20;;;;;;7378314;19;20468;-79
2022/11/28 05:05:46;;;;;;;23.67;11.48;;;13.10;82.20;;;;;;7377038;19;20098;-79
2022/11/28 05:08:18;;;;;;;24.45;10.98;;;13.10;82.20;;;;;;7379844;19;20081;-79
2022/11/28 05:10:48;;;;;;;23.42;11.80;;;13.10;82.20;;;;;;7378840;19;20082;-78
2022/11/28 05:13:17;;;;;;;23.92;11.63;;;13.20;82.20;;;;;;7397631;19;20031;-79
2022/11/28 05:15:46;;;;;;;23.55;12.02;;;13.20;82.20;;;;;;7376275;19;20019;-79
2022/11/28 05:18:15;;;;;;;18.50;10.68;;;13.20;82.20;;;;;;7377057;19;20015;-77
2022/11/28 05:20:44;;;;;;;21.90;11.02;;;13.20;82.10;;;;;;7376620;19;20022;-79
2022/11/28 05:23:13;;;;;;;27.23;11.13;;;13.20;82.10;;;;;;7378118;19;20562;-80
2022/11/28 05:25:44;;;;;;;28.60;12.68;;;13.20;82.10;;;;;;7374693;19;20000;-79
2022/11/28 05:28:13;;;;;;;28.75;12.43;;;13.20;82.10;;;;;;7397804;19;20033;-79
2022/11/28 05:30:42;;;;;;;24.88;11.63;;;13.20;82.10;;;;;;7376765;19;20304;-79
2022/11/28 05:33:10;;;;;;;27.13;11.50;;;13.30;82.10;;;;;;7374172;19;20406;-79
2022/11/28 05:35:41;;;;;;;23.00;11.55;;;13.30;82.10;;;;;;7378807;19;20031;-79
2022/11/28 05:38:10;;;;;;;30.40;11.93;;;13.20;81.90;;;;;;7390618;19;20090;-79
2022/11/28 05:40:43;;;;;;;22.65;11.60;;;13.20;81.90;;;;;;7380018;19;20089;-79
2022/11/28 05:43:14;;;;;;;40.38;11.65;;;13.20;81.90;;;;;;7394507;19;20019;-79
2022/11/28 05:45:43;;;;;;;25.55;10.15;;;13.20;81.80;;;;;;7374787;19;20112;-79
2022/11/28 05:48:12;;;;;;;29.25;10.82;;;13.20;81.80;;;;;;7375822;19;20477;-78
2022/11/28 05:50:41;;;;;;;27.33;11.43;;;13.10;81.80;;;;;;7376402;19;20029;-78
2022/11/28 05:53:11;;;;;;;27.00;11.02;;;13.10;81.90;;;;;;7374988;19;20085;-78
2022/11/28 05:55:41;;;;;;;35.22;11.73;;;13.10;82.00;;;;;;7375674;19;20052;-78
2022/11/28 05:58:10;;;;;;;30.33;11.05;;;13.10;82.10;;;;;;7396396;19;20026;-79
2022/11/28 06:00:41;;;;;;;27.35;10.55;;;13.10;82.10;;;;;;7374361;19;20010;-78
2022/11/28 06:03:10;;;;;;;23.70;10.65;;;13.10;82.90;;;;;;7376119;19;20022;-80
2022/11/28 06:05:41;;;;;;;31.23;11.20;;;13.10;82.10;;;;;;7375053;19;20018;-79
2022/11/28 06:08:10;;;;;;;30.83;11.60;;;13.10;82.10;;;;;;7375167;19;20010;-79
2022/11/28 06:10:39;;;;;;;25.38;11.27;;;13.10;82.10;;;;;;7373578;19;20014;-78
2022/11/28 06:13:07;;;;;;;27.50;11.90;;;13.10;82.10;;;;;;7395581;19;20018;-78
2022/11/28 06:15:36;;;;;;;23.08;10.38;;;13.00;82.20;;;;;;7375130;19;20034;-79
2022/11/28 06:18:08;;;;;;;28.48;11.80;;;12.90;82.30;;;;;;7375255;19;20459;-79
2022/11/28 06:20:36;;;;;;;;;;;12.90;82.40;;;;;;7375345;19;20018;-79
2022/11/28 06:23:08;;;;;;;31.67;10.52;;;12.90;82.60;;;;;;7376570;19;19943;-79
2022/11/28 06:25:39;;;;;;;;;;;12.80;82.40;;;;;;7381817;19;20026;-79
2022/11/28 06:28:07;;;;;;;28.63;9.53;;;12.80;82.70;;;;;;7396727;19;19937;-80
2022/11/28 06:30:36;;;;;;;38.50;10.40;;;12.80;82.60;;;;;;7374350;19;20054;-80
2022/11/28 06:33:08;;;;;;;31.38;10.43;;;12.70;82.70;;;;;;7377536;19;20047;-80
2022/11/28 06:35:36;;;;;;;28.23;9.20;;;12.70;82.80;;;;;;7376237;19;20118;-77
2022/11/28 06:38:05;;;;;;;211.10;23.75;;;12.70;82.80;;;;;;7382744;19;20035;-77
2022/11/28 06:40:34;;;;;;;389.13;34.53;;;12.70;83.30;;;;;;7383945;19;20021;-77
2022/11/28 06:43:02;;;;;;;30.60;9.82;;;12.70;83.50;;;;;;7400648;19;20098;-77
2022/11/28 06:45:31;;;;;;;31.23;9.25;;;12.70;83.30;;;;;;7382076;19;20114;-74
2022/11/28 06:48:00;;;;;;;31.02;10.95;;;12.70;83.10;;;;;;7380795;19;20433;-76
2022/11/28 06:50:31;;;;;;;30.08;9.52;;;12.70;83.10;;;;;;7380271;19;20069;-74
2022/11/28 06:53:00;;;;;;;26.55;9.43;;;12.70;83.10;;;;;;7374727;19;20022;-80
2022/11/28 06:55:31;;;;;;;42.88;10.05;;;12.70;83.00;;;;;;7377252;19;20025;-79
2022/11/28 06:57:59;;;;;;;28.08;9.68;;;12.80;82.90;;;;;;7394719;19;20318;-77
2022/11/28 07:00:28;;;;;;;38.00;10.90;;;12.80;82.70;;;;;;7375431;19;20021;-78
2022/11/28 07:02:57;;;;;;;32.88;10.55;;;12.80;82.70;;;;;;7377092;19;20097;-78
2022/11/28 07:05:27;;;;;;;28.23;10.88;;;12.80;82.50;;;;;;7384853;19;20094;-80
2022/11/28 07:07:58;;;;;;;29.75;10.45;;;12.90;82.50;;;;;;7374187;19;20022;-80
2022/11/28 07:10:29;;;;;;;35.90;10.77;;;12.90;82.50;;;;;;7373572;19;20020;-77
2022/11/28 07:12:58;;;;;;;35.10;10.88;;;12.90;82.40;;;;;;7396848;19;20035;-78
2022/11/28 07:15:28;;;;;;;34.05;10.85;;;12.90;82.30;;;;;;7372147;19;20018;-77
2022/11/28 07:17:56;;;;;;;32.75;10.52;;;12.90;82.20;;;;;;7371287;19;20025;-77
2022/11/28 07:20:25;;;;;;;37.13;10.88;;;12.90;82.10;;;;;;7368313;19;20052;-77
2022/11/28 07:22:54;;;;;;;37.50;11.68;;;12.90;82.10;;;;;;7371816;19;20024;-78
2022/11/28 07:25:25;;;;;;;27.05;10.50;;;12.90;82.00;;;;;;7372444;19;20369;-77
2022/11/28 07:27:54;;;;;;;36.05;9.73;;;12.90;81.90;;;;;;7393070;19;20022;-81
2022/11/28 07:30:23;;;;;;;34.97;10.90;;;12.90;81.90;;;;;;7371272;19;20651;-82
2022/11/28 15:08:50;;;;;;;19.05;3.63;;;14.10;73.90;;;;;;7321830;19;20019;-77
2022/11/28 15:11:35;;;;;;;17.27;3.22;;;13.90;74.70;;;;;;7371373;19;20301;-78
2022/11/28 15:14:11;;;;;;;25.27;3.42;;;14.00;74.70;;;;;;7374378;19;20188;-77
2022/11/28 15:16:43;;;;;;;23.75;3.15;;;14.00;74.70;;;;;;7377288;19;20085;-78
2022/11/28 15:19:20;;;;;;;9.50;2.60;;;13.90;75.00;;;;;;7378046;19;20017;-78
2022/11/28 15:21:51;;;;;;;16.45;2.72;;;13.90;74.80;;;;;;7379415;19;20887;-80
2022/11/28 15:24:31;;;;;;;12.03;2.63;;;13.90;75.00;;;;;;7388964;19;20321;-76
2022/11/28 15:27:20;;;;;;;26.38;3.58;;;13.90;75.10;;;;;;7397160;19;20018;-78
2022/11/28 15:29:55;;;;;;;;;;;13.90;75.00;;;;;;7375558;19;20014;-77
2022/11/28 15:32:24;;;;;;;18.27;3.63;;;14.00;75.00;;;;;;7371371;19;19923;-77
2022/11/28 15:34:57;;;;;;;17.98;3.53;;;14.00;74.80;;;;;;7372111;19;20687;-76
2022/11/28 15:37:29;;;;;;;21.25;3.83;;;13.90;75.80;;;;;;7370673;19;20011;-77
2022/11/28 15:40:03;;;;;;;19.02;4.40;;;13.90;75.10;;;;;;7373239;19;20018;-77
2022/11/28 15:42:35;;;;;;;20.17;4.07;;;13.80;75.40;;;;;;7373845;19;20018;-76
2022/11/28 15:45:10;;;;;;;26.63;4.00;;;13.80;75.70;;;;;;7395904;19;20049;-77
2022/11/28 15:47:39;;;;;;;25.85;3.83;;;13.80;75.90;;;;;;7373637;19;20430;-78
2022/11/28 15:50:18;;;;;;;23.80;4.22;;;13.70;76.00;;;;;;7375174;19;20014;-78
2022/11/28 15:53:00;;;;;;;25.20;3.45;;;13.60;76.20;;;;;;7380052;19;20006;-79
2022/11/28 15:55:34;;;;;;;22.55;3.55;;;13.50;76.50;;;;;;7373884;19;20013;-77
2022/11/28 15:58:13;;;;;;;16.33;3.83;;;13.40;76.70;;;;;;7370517;19;20014;-77
2022/11/28 16:00:45;;;;;;;22.70;4.30;;;13.30;76.80;;;;;;7373405;19;20019;-79
2022/11/28 16:03:17;;;;;;;27.80;4.78;;;13.20;77.10;;;;;;7398556;19;20086;-78
2022/11/28 16:05:47;;;;;;;23.13;4.03;;;13.10;77.10;;;;;;7372250;19;20023;-78
2022/11/28 16:08:25;;;;;;;33.63;4.35;;;13.10;77.30;;;;;;7374349;19;20397;-79
2022/11/28 16:10:57;;;;;;;27.30;3.67;;;13.00;77.30;;;;;;7377613;19;20074;-80
2022/11/28 16:13:26;;;;;;;18.90;4.07;;;13.00;77.40;;;;;;7388476;19;20051;-77
2022/11/28 16:15:57;;;;;;;27.55;3.95;;;13.00;77.40;;;;;;7403495;19;20010;-77
2022/11/28 16:18:28;;;;;;;27.00;4.65;;;13.00;77.40;;;;;;7412217;19;20024;-78
2022/11/28 16:20:57;;;;;;;;;;;13.00;77.30;;;;;;7427927;19;20007;-79
2022/11/28 16:23:31;;;;;;;18.45;3.97;;;13.00;77.40;;;;;;7391957;19;19915;-79
2022/11/28 16:26:08;;;;;;;21.92;4.45;;;12.90;77.20;;;;;;7397222;19;20485;-80
2022/11/28 16:28:39;;;;;;;17.75;3.70;;;12.90;77.30;;;;;;7390452;19;20024;-81
2022/11/28 16:31:13;;;;;;;15.10;4.30;;;12.90;77.20;;;;;;7380137;19;20436;-77
2022/11/28 16:33:43;;;;;;;16.13;3.50;;;12.80;77.20;;;;;;7380036;19;20134;-76
2022/11/28 16:36:24;;;;;;;21.83;4.27;;;12.80;77.10;;;;;;7398307;19;20692;-77
2022/11/28 16:38:55;;;;;;;16.88;4.43;;;12.80;77.20;;;;;;7379721;19;20433;-79
2022/11/28 16:41:29;;;;;;;;;;;12.80;77.20;;;;;;7382389;19;20090;-79
2022/11/28 16:44:02;;;;;;;21.50;4.68;;;12.80;77.20;;;;;;7381992;19;19906;-79
2022/11/28 16:46:35;;;;;;;22.40;5.95;;;12.70;77.00;;;;;;7381011;19;20018;-79
2022/11/28 16:49:05;;;;;;;16.73;5.38;;;12.80;77.10;;;;;;7381221;19;20023;-78
2022/11/28 16:51:39;;;;;;;20.75;4.75;;;12.70;76.90;;;;;;7378969;19;20025;-79
2022/11/28 16:54:32;;;;;;;22.35;5.65;;;12.70;77.00;;;;;;7405952;19;20023;-79
2022/11/28 16:57:19;;;;;;;17.98;4.45;;;12.60;77.20;;;;;;7381491;19;20054;-78
2022/11/28 16:59:48;;;;;;;15.85;4.47;;;12.60;77.20;;;;;;7382603;19;20038;-78
2022/11/28 17:02:19;;;;;;;18.75;5.25;;;12.60;77.30;;;;;;7381692;19;20119;-79
2022/11/28 17:04:48;;;;;;;21.73;5.10;;;12.60;77.20;;;;;;7383119;19;20437;-78
2022/11/28 17:07:19;;;;;;;20.70;7.03;;;12.60;77.10;;;;;;7378703;19;20033;-78
2022/11/28 17:09:49;;;;;;;38.17;11.80;;;12.60;76.80;;;;;;7376212;19;20015;-78
2022/11/28 17:12:26;;;;;;;71.97;22.40;;;12.60;76.60;;;;;;7402183;19;20070;-78
2022/11/28 17:14:57;;;;;;;114.78;42.42;;;12.60;76.40;;;;;;7385660;19;20013;-78
2022/11/28 17:17:26;;;;;;;346.08;151.00;;;12.50;76.20;;;;;;7388941;19;20018;-78
2022/11/28 17:19:54;;;;;;;423.38;196.85;;;12.50;76.10;;;;;;7391432;19;20018;-81
2022/11/28 17:22:26;;;;;;;293.85;133.93;;;12.50;76.00;;;;;;7385324;19;20022;-79
2022/11/28 17:25:00;;;;;;;65.00;24.75;;;12.50;75.70;;;;;;7379199;19;20074;-79
2022/11/28 17:27:32;;;;;;;27.83;10.50;;;12.40;75.60;;;;;;7385171;19;20385;-78
2022/11/28 17:30:00;;;;;;;20.33;6.10;;;12.40;75.70;;;;;;7408672;19;20082;-82
2022/11/28 17:32:29;;;;;;;25.63;5.65;;;12.40;75.80;;;;;;7385641;19;20067;-81
2022/11/28 17:34:58;;;;;;;19.67;4.90;;;12.30;75.80;;;;;;7384238;19;20046;-82
2022/11/28 17:37:27;;;;;;;24.08;5.50;;;12.30;76.50;;;;;;7383030;19;20007;-81
2022/11/28 17:42:39;;;;;;;23.67;5.53;;;12.20;75.80;;;;;;7387297;19;20010;-81
2022/11/28 17:45:16;;;;;;;32.85;5.82;;;12.20;76.00;;;;;;7423957;19;20011;-82
2022/11/28 17:47:45;;;;;;;22.85;6.03;;;12.10;75.90;;;;;;7410668;19;20010;-81
2022/11/28 17:50:13;;;;;;;28.80;5.03;;;12.10;75.80;;;;;;7402430;19;20006;-82
2022/11/28 17:52:42;;;;;;;22.95;5.63;;;12.10;76.70;;;;;;7382465;19;20422;-83
2022/11/28 17:55:11;;;;;;;26.90;5.20;;;12.00;77.30;;;;;;7383636;19;20058;-80
2022/11/28 17:57:42;;;;;;;21.70;3.92;;;12.10;77.50;;;;;;7384421;19;20032;-80
2022/11/28 18:00:13;;;;;;;12.13;4.10;;;12.10;77.30;;;;;;7403957;19;20091;-80
2022/11/28 18:02:42;;;;;;;15.07;3.90;;;12.10;77.20;;;;;;7379339;19;20014;-80
2022/11/28 18:05:11;;;;;;;11.88;3.28;;;12.20;77.20;;;;;;7377682;19;20369;-79
2022/11/28 18:07:40;;;;;;;14.13;3.40;;;12.20;76.60;;;;;;7377078;19;20078;-79
2022/11/28 18:10:10;;;;;;;11.10;4.20;;;12.30;76.20;;;;;;7369870;19;20062;-82
2022/11/28 18:12:41;;;;;;;11.18;3.03;;;12.40;76.10;;;;;;7379580;19;20473;-80
2022/11/28 18:15:11;;;;;;;12.10;3.08;;;12.40;75.60;;;;;;7396450;19;20014;-80
2022/11/28 18:17:40;;;;;;;12.05;2.80;;;12.40;75.30;;;;;;7375295;19;20014;-81
2022/11/28 18:20:10;;;;;;;13.10;3.17;;;12.40;75.20;;;;;;7378319;19;20104;-82
2022/11/28 18:22:39;;;;;;;8.50;2.17;;;12.40;75.70;;;;;;7377434;19;20062;-81
2022/11/28 18:25:09;;;;;;;9.77;3.53;;;12.40;75.00;;;;;;7375936;19;20106;-81
2022/11/28 18:27:38;;;;;;;13.50;3.30;;;12.50;75.00;;;;;;7376611;19;20097;-80
2022/11/28 18:30:12;;;;;;;17.60;3.55;;;12.50;75.00;;;;;;7397330;19;20046;-80
2022/11/28 18:32:41;;;;;;;19.27;4.03;;;12.50;75.40;;;;;;7374250;19;20023;-81
2022/11/28 18:35:10;;;;;;;12.88;4.75;;;12.60;75.50;;;;;;7376266;19;20106;-81
2022/11/28 18:37:39;;;;;;;16.17;5.18;;;12.60;75.50;;;;;;7378739;19;20101;-81
2022/11/28 18:40:09;;;;;;;22.35;7.18;;;12.60;75.70;;;;;;7377268;19;20089;-81
2022/11/28 18:42:38;;;;;;;22.60;8.00;;;12.60;75.90;;;;;;7378264;19;20086;-81
2022/11/28 18:45:12;;;;;;;20.42;7.70;;;12.60;76.20;;;;;;7400799;19;20038;-82
2022/11/28 18:47:40;;;;;;;25.15;11.05;;;12.60;76.50;;;;;;7383201;19;20019;-83
2022/11/28 18:50:10;;;;;;;40.42;17.77;;;12.60;76.70;;;;;;7380722;19;20504;-83
2022/11/28 18:52:39;;;;;;;16.10;7.75;;;12.60;77.00;;;;;;7382467;19;20014;-82
2022/11/28 18:55:08;;;;;;;14.02;4.22;;;12.60;76.80;;;;;;7381086;19;20568;-82
2022/11/28 18:57:40;;;;;;;12.70;5.63;;;12.50;76.90;;;;;;7381147;19;20019;-82
2022/11/28 19:00:12;;;;;;;;;;;12.60;76.90;;;;;;7403796;19;20015;-83
2022/11/28 19:02:41;;;;;;;25.35;10.02;;;12.60;77.10;;;;;;7386499;19;20237;-82
2022/11/28 19:05:10;;;;;;;29.75;9.65;;;12.60;77.00;;;;;;7386388;19;20081;-83
2022/11/28 19:07:39;;;;;;;32.88;12.00;;;12.70;77.10;;;;;;7384552;19;20022;-83
2022/11/28 19:10:10;;;;;;;29.52;13.35;;;12.70;76.90;;;;;;7383493;19;20010;-83
2022/11/28 19:12:39;;;;;;;30.85;14.50;;;12.70;77.10;;;;;;7385754;19;20135;-83
2022/11/28 19:15:12;;;;;;;18.30;8.15;;;12.70;77.00;;;;;;7428187;19;20022;-81
2022/11/28 19:17:41;;;;;;;12.45;4.63;;;12.60;76.90;;;;;;7407253;19;20066;-82
2022/11/28 19:20:11;;;;;;;15.60;3.83;;;12.60;76.70;;;;;;7391412;19;20007;-82
2022/11/28 19:22:40;;;;;;;12.50;2.80;;;12.60;77.60;;;;;;7380483;19;20018;-83
2022/11/28 19:25:10;;;;;;;14.05;3.85;;;12.60;76.80;;;;;;7390591;19;20019;-82
2022/11/28 19:27:38;;;;;;;9.73;3.60;;;12.50;76.90;;;;;;7386329;19;20032;-81
2022/11/28 19:30:12;;;;;;;10.50;4.13;;;12.50;76.90;;;;;;7400498;19;20538;-83
2022/11/28 19:32:41;;;;;;;9.00;4.57;;;12.50;76.90;;;;;;7382650;19;20403;-82
2022/11/28 19:35:10;;;;;;;43.22;20.13;;;12.50;76.80;;;;;;7384620;19;20007;-81
2022/11/28 19:37:40;;;;;;;11.65;5.30;;;12.50;76.70;;;;;;7386743;19;20010;-80
2022/11/28 19:40:10;;;;;;;8.95;4.15;;;12.50;76.60;;;;;;7387838;19;20013;-82
2022/11/28 19:42:39;;;;;;;16.13;7.37;;;12.40;76.60;;;;;;7388014;19;20016;-82
2022/11/28 19:45:12;;;;;;;15.50;6.93;;;12.40;76.60;;;;;;7408714;19;20027;-83
2022/11/28 19:47:41;;;;;;;12.55;4.18;;;12.50;76.70;;;;;;7386964;19;20023;-82
2022/11/28 19:50:11;;;;;;;6.72;3.17;;;12.50;76.70;;;;;;7386969;19;20019;-82
2022/11/28 19:52:40;;;;;;;10.40;3.20;;;12.50;76.70;;;;;;7384144;19;20039;-81
2022/11/28 19:55:09;;;;;;;10.60;3.05;;;12.50;76.70;;;;;;7384271;19;20022;-82
2022/11/28 19:57:38;;;;;;;5.55;3.35;;;12.50;76.50;;;;;;7377898;19;20614;-83
2022/11/28 20:00:08;;;;;;;8.35;3.50;;;12.50;76.10;;;;;;7399899;19;20102;-83
2022/11/28 20:02:39;;;;;;;9.10;3.60;;;12.50;76.10;;;;;;7379224;19;20022;-82
2022/11/28 20:05:09;;;;;;;8.82;2.97;;;12.40;75.90;;;;;;7376698;19;20031;-82
2022/11/28 20:07:37;;;;;;;9.23;3.75;;;12.40;76.10;;;;;;7374237;19;20094;-82
2022/11/28 20:10:07;;;;;;;7.68;3.10;;;12.40;76.20;;;;;;7374294;19;20031;-83
2022/11/28 20:12:36;;;;;;;9.30;3.53;;;12.50;76.40;;;;;;7378252;19;20027;-82
2022/11/28 20:15:05;;;;;;;7.35;3.10;;;12.50;76.40;;;;;;7396443;19;20113;-83
2022/11/28 20:17:34;;;;;;;6.75;3.35;;;12.50;76.40;;;;;;7376443;19;20120;-82
2022/11/28 20:20:06;;;;;;;15.63;4.85;;;12.50;76.50;;;;;;7373677;19;20018;-82
2022/11/28 20:22:36;;;;;;;14.85;6.50;;;12.50;76.40;;;;;;7373885;19;20039;-82
2022/11/28 20:25:05;;;;;;;12.82;4.88;;;12.50;76.40;;;;;;7372665;19;20507;-82
2022/11/28 20:27:34;;;;;;;11.90;4.32;;;12.50;76.30;;;;;;7371618;19;20082;-82
2022/11/28 20:30:04;;;;;;;15.88;5.47;;;12.50;76.40;;;;;;7391656;19;20019;-82
2022/11/28 20:32:33;;;;;;;19.10;5.53;;;12.40;76.50;;;;;;7375150;19;20025;-82
2022/11/28 20:35:04;;;;;;;11.57;4.85;;;12.40;76.60;;;;;;7375032;19;20086;-83
2022/11/28 20:37:33;;;;;;;8.23;4.10;;;12.40;76.40;;;;;;7374584;19;20014;-83
2022/11/28 20:40:02;;;;;;;13.98;4.20;;;12.30;76.50;;;;;;7376137;19;20015;-83